Latest Weather Observations for Renmark Airport

IDS60801

Issued at 10:31 am CDT Wednesday 1 April 2015 (issued every 30 minutes, with the page automatically refreshed every 10 minutes)

About weather observations | Map of weather stations | Latest weather observations for SA | Other Formats
Station Details ID: 024048 Name: RENMARK AERO Lat: -34.20 Lon: 140.68 Height: 31.5 m
Data from the previous 72 hours. | See also: Recent months at Renmark Airport
Date/Time
CDT
Temp
°C
App
Temp
°C
Dew
Point
Rel
Hum
%
Delta-T
°C
Wind Press
QNH
hPa
Press
MSL
hPa
Rain
since 9 am
mm
Dir
 
Spd
km/h
Gust
km/h
Spd
kts
Gust
kts
01/10:30am 27.2 21.5 0.8 18 12.5 N 20 26 11 14 1017.8 1017.7 0.0
01/10:00am 24.9 19.3 1.1 21 11.2 N 20 28 11 15 1017.8 1017.7 0.0
01/09:30am 23.7 18.6 0.7 22 10.6 N 17 24 9 13 1018.0 1017.9 0.0
01/09:00am 21.6 18.2 1.8 27 9.2 N 9 15 5 8 1018.1 1018.0 0.0
01/08:50am 20.3 17.3 2.2 30 8.4 N 7 17 4 9 1018.2 1018.1 0.0
01/08:30am 15.3 12.5 1.8 40 5.9 N 6 7 3 4 1018.0 1017.9 0.0
01/08:00am 11.2 9.2 -0.3 45 4.6 CALM 0 0 0 0 1017.8 1017.7 0.0
01/07:30am 10.1 8.0 -1.0 46 4.4 CALM 0 0 0 0 1017.9 1017.8 0.0
01/07:00am 9.9 7.7 -1.2 46 4.3 CALM 0 0 0 0 1017.8 1017.7 0.0
01/06:30am 9.8 7.7 -0.7 48 4.1 CALM 0 0 0 0 1017.8 1017.7 0.0
01/06:00am 9.7 7.6 -1.1 47 4.2 CALM 0 0 0 0 1017.8 1017.7 0.0
01/05:30am 10.3 8.2 -0.5 47 4.3 CALM 0 0 0 0 1017.6 1017.5 0.0
01/05:00am 10.7 8.2 -0.7 45 4.5 WSW 2 6 1 3 1017.6 1017.5 0.0
01/04:30am 10.6 7.4 -0.8 45 4.5 WSW 6 7 3 4 1017.8 1017.7 0.0
01/04:00am 11.5 9.4 -0.9 42 5.0 CALM 0 0 0 0 1017.9 1017.8 0.0
01/03:30am 11.6 9.4 -1.2 41 5.1 CALM 0 0 0 0 1018.2 1018.1 0.0
01/03:00am 13.2 10.2 0.9 43 5.2 NNW 6 7 3 4 1018.6 1018.5 0.0
01/02:30am 12.4 9.1 -1.1 39 5.4 W 6 7 3 4 1019.1 1019.0 0.0
01/02:00am 13.2 10.0 -0.4 39 5.6 W 6 7 3 4 1019.4 1019.3 0.0
01/01:30am 13.1 9.5 0.5 42 5.3 W 9 11 5 6 1019.7 1019.6 0.0
01/01:00am 13.7 11.7 -0.3 38 5.8 CALM 0 0 0 0 1019.6 1019.5 0.0
01/12:30am 14.1 12.0 -1.1 35 6.2 CALM 0 0 0 0 1019.9 1019.8 0.0
01/12:00am 14.7 12.7 0.2 37 6.1 CALM 0 0 0 0 1019.9 1019.8 0.0
 
Date/Time
CDT
Temp
°C
App
Temp
°C
Dew
Point
Rel
Hum
%
Delta-T
°C
Wind Press
QNH
hPa
Press
MSL
hPa
Rain
since 9 am
mm
Dir
 
Spd
km/h
Gust
km/h
Spd
kts
Gust
kts
31/11:30pm 14.6 11.8 -0.3 36 6.2 NNE 4 7 2 4 1019.9 1019.8 0.0
31/11:00pm 16.1 12.9 0.7 35 6.7 NNE 7 9 4 5 1020.0 1019.9 0.0
31/10:30pm 17.1 15.3 1.1 34 7.0 CALM 0 0 0 0 1020.1 1020.0 0.0
31/10:00pm 17.9 16.3 2.2 35 7.1 CALM 0 0 0 0 1020.1 1020.0 0.0
31/09:30pm 18.7 16.9 1.2 31 7.8 CALM 0 0 0 0 1020.3 1020.2 0.0
31/09:00pm 19.6 17.7 0.6 28 8.4 CALM 0 0 0 0 1020.2 1020.1 0.0
31/08:30pm 20.3 18.3 0.2 26 8.9 CALM 0 0 0 0 1020.1 1020.0 0.0
31/08:00pm 22.0 20.4 2.2 27 9.3 CALM 0 0 0 0 1020.0 1019.9 0.0
31/07:30pm 24.6 23.0 2.7 24 10.5 CALM 0 0 0 0 1019.7 1019.6 0.0
31/07:00pm 27.2 23.8 1.6 19 12.3 ENE 9 13 5 7 1019.4 1019.3 0.0
31/06:30pm 29.2 25.8 1.7 17 13.4 ENE 9 11 5 6 1019.5 1019.4 0.0
31/06:00pm 30.2 26.6 0.7 15 14.3 NE 9 13 5 7 1019.5 1019.4 0.0
31/05:30pm 30.6 26.2 0.1 14 14.6 E 13 15 7 8 1019.6 1019.5 0.0
31/05:00pm 30.7 25.9 0.2 14 14.7 NE 15 22 8 12 1019.6 1019.5 0.0
31/04:30pm 30.6 26.9 0.1 14 14.6 N 9 17 5 9 1019.7 1019.6 0.0
31/04:00pm 30.5 26.4 0.0 14 14.6 ESE 11 22 6 12 1020.0 1019.9 0.0
31/03:30pm 31.1 26.3 0.5 14 14.8 NNE 15 22 8 12 1020.2 1020.1 0.0
31/03:00pm 29.7 26.1 0.3 15 14.1 NNE 9 17 5 9 1020.6 1020.5 0.0
31/02:30pm 30.2 26.2 0.7 15 14.2 NNE 11 19 6 10 1021.1 1021.0 0.0
31/02:00pm 30.2 26.4 1.6 16 14.1 NNE 11 20 6 11 1021.7 1021.6 0.0
31/01:30pm 30.1 26.6 1.5 16 14.0 NNW 9 19 5 10 1022.0 1021.9 0.0
31/01:00pm 28.4 24.2 1.8 18 13.0 N 13 19 7 10 1022.4 1022.3 0.0
31/12:30pm 28.5 24.5 2.7 19 12.7 NNE 13 22 7 12 1022.9 1022.8 0.0
31/12:00pm 28.0 23.3 3.0 20 12.4 NE 17 22 9 12 1023.5 1023.4 0.0
31/11:30am 26.4 22.9 5.4 26 10.7 ENE 13 19 7 10 1023.9 1023.8 0.0
31/11:00am 24.7 22.2 6.4 31 9.5 ENE 9 13 5 7 1024.5 1024.4 0.0
31/10:30am 22.6 20.2 6.8 36 8.1 E 9 15 5 8 1024.7 1024.6 0.0
31/10:00am 20.7 17.9 7.0 41 7.0 ESE 11 13 6 7 1024.9 1024.8 0.0
31/09:30am 18.6 16.2 6.8 46 5.9 ESE 9 13 5 7 1025.1 1025.0 0.0
31/09:00am 17.0 14.1 6.5 50 5.1 SE 11 13 6 7 1025.3 1025.2 0.0
31/08:30am 15.6 13.2 6.9 56 4.3 SSE 9 11 5 6 1025.3 1025.2 0.0
31/08:00am 13.3 11.8 6.9 65 3.1 SSE 4 6 2 3 1024.7 1024.6 0.0
31/07:30am 11.4 9.5 6.5 72 2.3 SSW 6 7 3 4 1024.6 1024.5 0.0
31/07:00am 11.8 10.0 7.1 73 2.3 SSW 6 7 3 4 1024.3 1024.2 0.0
31/06:30am 12.4 10.5 6.9 69 2.6 S 6 7 3 4 1024.0 1023.9 0.0
31/06:00am 12.5 10.4 6.8 68 2.7 SSW 7 7 4 4 1023.9 1023.8 0.0
31/05:30am 12.1 9.9 6.4 68 2.7 S 7 9 4 5 1023.4 1023.3 0.0
31/05:00am 12.1 11.2 6.2 67 2.8 CALM 0 0 0 0 1023.4 1023.3 0.0
31/04:30am 13.9 12.0 6.7 62 3.5 SSE 6 9 3 5 1023.3 1023.2 0.0
31/04:00am 14.6 12.6 7.2 61 3.6 SE 7 9 4 5 1023.4 1023.3 0.0
31/03:30am 14.8 12.5 7.4 61 3.6 SE 9 13 5 7 1023.6 1023.5 0.0
31/03:00am 15.6 13.4 7.9 60 3.8 SSE 9 11 5 6 1023.8 1023.7 0.0
31/02:30am 16.4 13.5 8.1 58 4.2 SE 13 17 7 9 1023.8 1023.7 0.0
31/02:00am 16.9 14.0 8.1 56 4.5 SSE 13 17 7 9 1024.2 1024.1 0.0
31/01:30am 17.2 14.2 7.5 53 4.9 SSE 13 17 7 9 1024.3 1024.2 0.0
31/01:00am 17.9 14.4 7.3 50 5.3 S 15 19 8 10 1024.3 1024.2 0.0
31/12:30am 18.4 14.9 7.2 48 5.6 S 15 20 8 11 1024.3 1024.2 0.0
31/12:00am 19.1 15.5 6.9 45 6.1 S 15 22 8 12 1024.4 1024.3 0.0
 
Date/Time
CDT
Temp
°C
App
Temp
°C
Dew
Point
Rel
Hum
%
Delta-T
°C
Wind Press
QNH
hPa
Press
MSL
hPa
Rain
since 9 am
mm
Dir
 
Spd
km/h
Gust
km/h
Spd
kts
Gust
kts
30/11:30pm 19.6 15.4 5.6 40 6.9 S 17 20 9 11 1024.4 1024.3 0.0
30/11:00pm 20.3 16.7 5.1 37 7.5 S 13 20 7 11 1024.4 1024.3 0.0
30/10:30pm 20.3 17.1 5.1 37 7.4 S 11 15 6 8 1024.4 1024.3 0.0
30/10:00pm 20.8 17.2 5.2 36 7.7 SSW 13 15 7 8 1024.3 1024.2 0.0
30/09:30pm 20.6 17.6 5.8 38 7.3 SSW 11 13 6 7 1024.1 1024.0 0.0
30/09:00pm 21.3 18.3 6.0 37 7.6 SSW 11 13 6 7 1023.9 1023.8 0.0
30/08:30pm 21.8 18.8 6.1 36 7.9 SSW 11 13 6 7 1023.8 1023.7 0.0
30/08:00pm 22.7 20.1 6.0 34 8.5 SSW 9 13 5 7 1023.5 1023.4 0.0
30/07:30pm 23.9 21.3 6.2 32 9.0 SSW 9 13 5 7 1023.1 1023.0 0.0
30/07:00pm 25.3 22.3 6.0 29 9.9 SSW 11 15 6 8 1022.8 1022.7 0.0
30/06:30pm 26.5 22.7 6.0 27 10.6 S 15 19 8 10 1022.6 1022.5 0.0
30/06:00pm 27.1 23.3 6.0 26 10.9 SSW 15 24 8 13 1022.4 1022.3 0.0
30/05:30pm 27.2 23.7 5.5 25 11.2 SSW 13 22 7 12 1022.3 1022.2 0.0
30/05:00pm 27.1 23.2 5.4 25 11.2 S 15 30 8 16 1022.2 1022.1 0.0
30/04:30pm 26.9 23.5 5.8 26 10.9 SSE 13 20 7 11 1022.1 1022.0 0.0
30/04:00pm 26.9 24.2 5.8 26 10.9 SSE 9 20 5 11 1022.2 1022.1 0.0
30/03:30pm 26.8 23.4 5.7 26 10.9 SSE 13 22 7 12 1022.3 1022.2 0.0
30/03:00pm 27.5 23.8 6.3 26 11.1 S 15 28 8 15 1022.5 1022.4 0.0
30/02:30pm 27.5 24.7 5.1 24 11.5 S 9 24 5 13 1022.8 1022.7 0.0
30/02:00pm 25.9 23.2 5.5 27 10.5 S 9 17 5 9 1023.2 1023.1 0.0
30/01:30pm 25.7 22.7 5.8 28 10.2 SE 11 15 6 8 1023.6 1023.5 0.0
30/01:00pm 25.3 22.7 6.0 29 9.9 SW 9 17 5 9 1024.0 1023.9 0.0
30/12:30pm 24.7 22.2 6.4 31 9.4 SW 9 20 5 11 1024.4 1024.3 0.0
30/12:00pm 23.9 21.0 6.7 33 8.9 SE 11 17 6 9 1024.7 1024.6 0.0
30/11:30am 23.6 20.5 7.3 35 8.5 S 13 22 7 12 1025.0 1024.9 0.0
30/11:00am 22.4 19.2 7.0 37 7.9 S 13 20 7 11 1025.4 1025.3 0.0
30/10:30am 21.4 19.1 7.3 40 7.2 S 9 15 5 8 1025.6 1025.5 0.0
30/10:00am 20.0 17.8 7.7 45 6.3 S 9 15 5 8 1025.4 1025.3 0.0
30/09:30am 18.5 15.9 7.6 49 5.5 SSW 11 13 6 7 1025.2 1025.1 0.0
30/09:00am 17.1 14.8 7.5 53 4.8 S 9 13 5 7 1024.9 1024.8 0.0
30/08:30am 15.9 13.5 7.1 56 4.3 SW 9 15 5 8 1024.6 1024.5 0.0
30/08:00am 13.0 10.8 6.1 63 3.3 WSW 7 9 4 5 1024.2 1024.1 0.0
30/07:30am 9.8 7.1 3.8 66 2.6 WSW 7 11 4 6 1023.8 1023.7 0.0
30/07:00am 9.8 7.1 3.5 65 2.7 WSW 7 9 4 5 1023.4 1023.3 0.0
30/06:30am 10.3 8.9 3.6 63 2.9 CALM 0 0 0 0 1023.2 1023.1 0.0
30/06:00am 11.0 8.4 4.2 63 3.0 W 7 11 4 6 1023.0 1022.9 0.0
30/05:30am 12.2 9.8 4.2 58 3.6 SE 6 7 3 4 1022.6 1022.5 0.0
30/05:00am 13.3 11.4 4.7 56 4.0 SE 4 7 2 4 1022.6 1022.5 0.0
30/04:30am 14.3 13.3 5.7 56 4.1 CALM 0 0 0 0 1022.7 1022.6 0.0
30/04:00am 13.4 11.1 4.8 56 4.0 SW 6 7 3 4 1022.6 1022.5 0.0
30/03:30am 14.6 11.9 5.4 54 4.3 SE 9 11 5 6 1022.6 1022.5 0.0
30/03:00am 13.3 11.9 3.7 52 4.3 CALM 0 0 0 0 1023.0 1022.9 0.0
30/02:30am 13.0 10.3 3.7 53 4.2 SSW 7 9 4 5 1023.1 1023.0 0.0
30/02:00am 13.2 10.5 3.8 53 4.2 SW 7 7 4 4 1023.0 1022.9 0.0
30/01:30am 13.7 11.1 4.0 52 4.4 SSW 7 9 4 5 1022.9 1022.8 0.0
30/01:00am 15.3 13.0 4.7 49 5.0 SW 6 9 3 5 1022.8 1022.7 0.0
30/12:30am 16.6 13.7 4.9 46 5.5 SW 9 13 5 7 1022.7 1022.6 0.0
30/12:00am 18.4 14.6 5.6 43 6.2 WNW 15 19 8 10 1022.6 1022.5 0.0
 
Date/Time
CDT
Temp
°C
App
Temp
°C
Dew
Point
Rel
Hum
%
Delta-T
°C
Wind Press
QNH
hPa
Press
MSL
hPa
Rain
since 9 am
mm
Dir
 
Spd
km/h
Gust
km/h
Spd
kts
Gust
kts
29/11:30pm 17.4 12.9 4.0 41 6.3 NW 17 19 9 10 1022.7 1022.6 0.0
29/11:00pm 13.9 11.3 1.2 42 5.5 WNW 4 9 2 5 1022.9 1022.8 0.0
29/10:30pm 15.2 13.5 1.7 40 5.9 CALM 0 0 0 0 1022.8 1022.7 0.0
29/10:00pm 16.0 14.2 1.3 37 6.4 CALM 0 0 0 0 1022.8 1022.7 0.0
29/09:30pm 16.9 15.1 1.0 34 7.0 CALM 0 0 0 0 1022.7 1022.6 0.0
29/09:00pm 18.3 15.3 2.2 34 7.3 NE 7 9 4 5 1022.4 1022.3 0.0
29/08:30pm 19.7 17.1 3.4 34 7.7 ESE 6 6 3 3 1022.1 1022.0 0.0
29/08:00pm 21.0 18.1 2.8 30 8.6 ESE 7 9 4 5 1021.7 1021.6 0.0
29/07:30pm 22.3 19.2 3.4 29 9.1 SE 9 11 5 6 1021.4 1021.3 0.0
29/07:00pm 23.3 20.0 2.7 26 9.9 SE 9 9 5 5 1021.3 1021.2 0.0
29/06:30pm 24.8 21.5 2.3 23 10.8 ESE 9 13 5 7 1021.1 1021.0 0.0
29/06:00pm 25.4 22.3 1.5 21 11.3 E 7 9 4 5 1020.9 1020.8 0.0
29/05:30pm 25.1 21.8 2.5 23 10.9 ENE 9 13 5 7 1021.0 1020.9 0.0
29/05:00pm 25.4 22.4 2.2 22 11.2 N 7 13 4 7 1020.9 1020.8 0.0
29/04:30pm 24.9 20.8 2.4 23 10.8 NNE 13 17 7 9 1020.8 1020.7 0.0
29/04:00pm 25.0 21.0 3.0 24 10.7 NNE 13 20 7 11 1020.8 1020.7 0.0
29/03:30pm 25.3 22.0 2.7 23 10.9 N 9 17 5 9 1021.0 1020.9 0.0
29/03:00pm 27.0 23.1 3.5 22 11.7 NE 13 20 7 11 1021.3 1021.2 0.0
29/02:30pm 26.2 22.3 3.4 23 11.2 NE 13 26 7 14 1021.5 1021.4 0.0
29/02:00pm 25.8 21.6 3.7 24 11.0 NE 15 24 8 13 1022.0 1021.9 0.0
29/01:30pm 24.3 20.2 4.1 27 9.9 N 15 22 8 12 1022.5 1022.4 0.0
29/01:00pm 24.1 20.5 5.0 29 9.6 NE 13 19 7 10 1022.9 1022.8 0.0
29/12:30pm 24.0 21.1 4.9 29 9.5 NNE 9 17 5 9 1023.3 1023.2 0.0
29/12:00pm 22.7 20.2 4.7 31 8.9 E 7 11 4 6 1023.5 1023.4 0.0
29/11:30am 22.1 20.6 5.1 33 8.4 ESE 2 6 1 3 1023.9 1023.8 0.0
29/11:00am 21.8 19.7 5.7 35 8.1 ENE 6 9 3 5 1024.0 1023.9 0.0

Other Formats:

Comma delimited format used in spreadsheet applications
http://www.bom.gov.au/fwo/IDS60801/IDS60801.95687.axf

JavaScript Object Notation format (JSON) in row-major order
http://www.bom.gov.au/fwo/IDS60801/IDS60801.95687.json